createdAt,value
2023-02-25T00:00:00.885Z,99.90
2023-02-25T00:02:27.612Z,99.90
2023-02-25T00:04:54.289Z,99.90
2023-02-25T00:07:22.740Z,99.90
2023-02-25T00:09:49.346Z,99.90
2023-02-25T00:12:15.968Z,99.90
2023-02-25T00:14:42.582Z,99.90
2023-02-25T00:17:09.336Z,99.90
2023-02-25T00:19:36.035Z,99.90
2023-02-25T00:22:02.654Z,99.90
2023-02-25T00:24:29.218Z,99.90
2023-02-25T00:26:55.790Z,99.90
2023-02-25T00:29:22.882Z,99.90
2023-02-25T05:32:50.158Z,99.90
2023-02-25T05:35:17.440Z,99.90
2023-02-25T05:37:44.072Z,99.90
2023-02-25T05:40:14.170Z,99.90
2023-02-25T05:42:40.935Z,99.90
2023-02-25T05:45:09.073Z,99.90
2023-02-25T05:47:35.893Z,99.90
2023-02-25T05:50:03.049Z,99.90
2023-02-25T05:52:29.693Z,99.90
2023-02-25T05:54:56.387Z,99.90
2023-02-25T05:57:23.896Z,99.90
2023-02-25T05:59:50.948Z,99.90
2023-02-25T06:02:17.592Z,99.90
2023-02-25T06:04:44.226Z,99.90
2023-02-25T06:07:10.879Z,99.90
2023-02-25T06:09:37.518Z,99.90
2023-02-25T06:12:04.439Z,99.90
2023-02-25T06:14:31.028Z,99.90
2023-02-25T06:16:57.758Z,99.90
2023-02-25T06:19:26.380Z,99.90
2023-02-25T06:21:54.789Z,99.90
2023-02-25T06:24:22.540Z,99.90
2023-02-25T06:26:49.314Z,99.90
2023-02-25T06:29:15.988Z,99.90
2023-02-25T06:31:43.253Z,99.90
2023-02-25T06:34:10.348Z,99.90
2023-02-25T06:36:36.981Z,99.90
2023-02-25T06:39:03.859Z,99.90
2023-02-25T06:41:30.551Z,99.90
2023-02-25T06:43:57.234Z,99.90
2023-02-25T06:46:26.088Z,99.90
2023-02-25T06:48:53.566Z,99.90
2023-02-25T06:51:20.178Z,99.90
2023-02-25T06:53:47.677Z,99.90
2023-02-25T06:56:15.526Z,99.90
2023-02-25T06:58:42.939Z,99.90
2023-02-25T07:01:12.373Z,99.90
2023-02-25T07:03:39.292Z,99.90
2023-02-25T07:06:06.796Z,99.90
2023-02-25T07:08:33.457Z,99.90
2023-02-25T07:11:19.275Z,99.90
2023-02-25T07:13:51.306Z,99.90
2023-02-25T07:16:18.281Z,99.90
2023-02-25T07:18:45.362Z,99.90
2023-02-25T07:21:15.730Z,99.90
2023-02-25T07:23:42.864Z,99.90
2023-02-25T07:26:11.539Z,99.90
2023-02-25T07:28:38.314Z,99.90
2023-02-25T07:31:14.051Z,99.90
2023-02-25T07:33:41.703Z,99.90
2023-02-25T07:36:09.643Z,99.90
2023-02-25T07:38:37.254Z,99.90
2023-02-25T07:41:06.137Z,99.90
2023-02-25T07:43:32.897Z,99.90
2023-02-25T07:46:00.164Z,99.90
2023-02-25T07:48:27.462Z,99.90
2023-02-25T07:50:54.185Z,99.90
2023-02-25T07:53:22.475Z,99.90
2023-02-25T07:55:49.653Z,99.90
2023-02-25T07:58:16.354Z,99.90
2023-02-25T08:00:45.712Z,99.90
2023-02-25T08:03:12.588Z,99.90
2023-02-25T08:05:39.243Z,99.90
2023-02-25T08:08:05.982Z,99.90
2023-02-25T08:10:32.800Z,99.90
2023-02-25T08:12:59.440Z,99.90
2023-02-25T08:15:26.133Z,99.90
2023-02-25T08:17:54.321Z,99.90
2023-02-25T08:20:21.196Z,99.90
2023-02-25T08:22:47.884Z,99.90
2023-02-25T08:25:14.715Z,99.90
2023-02-25T08:27:41.382Z,99.90
2023-02-25T08:30:08.775Z,99.90
2023-02-25T08:32:36.682Z,99.90
2023-02-25T08:35:04.130Z,99.90
2023-02-25T08:37:30.827Z,99.90
2023-02-25T08:39:57.557Z,99.90
2023-02-25T08:42:24.291Z,99.90
2023-02-25T08:44:51.161Z,99.90
2023-02-25T08:47:17.803Z,99.90
2023-02-25T08:49:44.522Z,99.90
2023-02-25T08:52:12.003Z,99.90
2023-02-25T08:54:39.818Z,99.90
2023-02-25T08:57:06.521Z,99.90
2023-02-25T08:59:35.990Z,99.90
2023-02-25T09:02:07.305Z,99.90
2023-02-25T09:04:34.595Z,99.90
2023-02-25T09:07:02.041Z,99.90
2023-02-25T09:09:28.674Z,99.90
2023-02-25T09:11:55.464Z,99.90
2023-02-25T09:14:22.636Z,99.90
2023-02-25T09:16:49.650Z,99.90
2023-02-25T09:19:18.262Z,99.90
2023-02-25T09:21:48.203Z,99.90
2023-02-25T09:24:15.853Z,99.90
2023-02-25T09:26:42.589Z,99.90
2023-02-25T09:29:10.064Z,99.90
2023-02-25T09:31:37.796Z,99.90
2023-02-25T09:34:07.398Z,99.90
2023-02-25T09:36:34.140Z,99.90
2023-02-25T09:39:00.933Z,99.90
2023-02-25T09:41:33.469Z,99.90
2023-02-25T09:44:13.508Z,99.90
2023-02-25T09:47:02.578Z,99.90
2023-02-25T09:49:38.383Z,99.90
2023-02-25T09:52:31.789Z,99.90
2023-02-25T09:55:17.835Z,99.90
2023-02-25T09:57:54.115Z,99.90
2023-02-25T10:00:22.797Z,99.90
2023-02-25T10:03:06.886Z,99.90
2023-02-25T10:06:01.653Z,99.90
2023-02-25T10:08:28.551Z,99.90
2023-02-25T10:10:55.195Z,99.90
2023-02-25T10:13:39.844Z,99.90
2023-02-25T10:16:15.316Z,99.90
2023-02-25T10:18:47.985Z,99.90
2023-02-25T10:21:41.545Z,99.90
2023-02-25T10:24:25.901Z,99.90
2023-02-25T10:27:02.923Z,99.90
2023-02-25T10:29:49.086Z,99.90
2023-02-25T10:32:22.996Z,99.90
2023-02-25T10:34:57.861Z,99.90
2023-02-25T10:37:43.044Z,99.90
2023-02-25T10:40:15.647Z,99.90
2023-02-25T10:42:47.260Z,99.90
2023-02-25T10:45:20.408Z,99.90
2023-02-25T10:47:52.432Z,99.90
2023-02-25T10:50:44.418Z,99.90
2023-02-25T10:53:18.824Z,99.90
2023-02-25T10:55:53.318Z,99.90
2023-02-25T10:58:40.913Z,99.90
2023-02-25T11:01:16.086Z,99.90
2023-02-25T11:04:00.538Z,99.90
2023-02-25T11:06:38.415Z,99.90
2023-02-25T11:09:26.899Z,99.90
2023-02-25T11:12:13.930Z,99.90
2023-02-25T11:14:40.574Z,99.90
2023-02-25T11:17:20.311Z,99.90
2023-02-25T11:19:55.577Z,99.90
2023-02-25T11:22:44.469Z,99.90
2023-02-25T11:25:29.656Z,99.90
2023-02-25T11:27:58.885Z,99.90
2023-02-25T11:30:33.248Z,99.90
2023-02-25T11:33:06.046Z,99.90
2023-02-25T11:35:38.992Z,99.90
2023-02-25T11:38:25.478Z,99.90
2023-02-25T11:40:52.153Z,99.90
2023-02-25T11:46:00.228Z,99.90
2023-02-25T11:48:45.098Z,99.90
2023-02-25T11:51:34.830Z,99.90
2023-02-25T11:54:04.879Z,99.90
2023-02-25T11:56:36.466Z,99.90
2023-02-25T11:59:18.178Z,99.90
2023-02-25T12:02:21.945Z,99.50
2023-02-25T12:05:08.929Z,99.50
2023-02-25T12:08:12.594Z,99.70
2023-02-25T12:11:05.069Z,99.90
2023-02-25T12:13:59.691Z,99.80
2023-02-25T12:16:45.544Z,99.70
2023-02-25T12:20:04.759Z,99.50
2023-02-25T12:23:17.458Z,99.00
2023-02-25T12:26:14.532Z,99.90
2023-02-25T12:28:49.722Z,99.40
2023-02-25T12:32:14.665Z,98.80
2023-02-25T12:34:50.057Z,98.40
2023-02-25T12:37:16.683Z,97.70
2023-02-25T12:39:55.390Z,97.30
2023-02-25T12:42:42.238Z,96.60
2023-02-25T12:45:40.297Z,97.90
2023-02-25T12:48:32.749Z,96.10
2023-02-25T12:51:05.236Z,96.50
2023-02-25T12:53:58.460Z,98.80
2023-02-25T12:56:46.756Z,97.10
2023-02-25T12:59:32.296Z,97.30
2023-02-25T13:02:36.701Z,97.30
2023-02-25T13:05:18.332Z,95.50
2023-02-25T13:08:21.728Z,95.10
2023-02-25T13:10:54.575Z,93.50
2023-02-25T13:13:30.551Z,92.90
2023-02-25T13:16:15.688Z,95.00
2023-02-25T13:19:02.658Z,92.20
2023-02-25T13:22:12.171Z,91.10
2023-02-25T13:25:23.724Z,91.40
2023-02-25T13:28:00.677Z,93.20
2023-02-25T13:30:47.720Z,91.80
2023-02-25T13:33:17.392Z,92.00
2023-02-25T13:36:11.312Z,91.30
2023-02-25T13:39:02.759Z,90.80
2023-02-25T13:41:41.693Z,90.00
2023-02-25T13:44:25.416Z,89.00
2023-02-25T13:46:52.505Z,91.00
2023-02-25T13:49:30.249Z,90.10
2023-02-25T13:52:21.135Z,88.70
2023-02-25T13:55:16.155Z,90.10
2023-02-25T13:58:02.584Z,87.60
2023-02-25T14:00:41.895Z,86.20
2023-02-25T14:03:14.370Z,89.40
2023-02-25T14:06:08.452Z,87.30
2023-02-25T14:08:53.505Z,83.60
2023-02-25T14:12:00.480Z,82.90
2023-02-25T14:15:15.747Z,84.90
2023-02-25T14:18:01.244Z,80.30
2023-02-25T14:20:40.100Z,79.20
2023-02-25T14:23:23.458Z,74.30
2023-02-25T14:26:11.443Z,72.70
2023-02-25T14:28:47.907Z,72.20
2023-02-25T14:31:31.924Z,71.30
2023-02-25T14:34:22.908Z,68.30
2023-02-25T14:37:06.475Z,66.00
2023-02-25T14:40:00.067Z,62.80
2023-02-25T14:43:02.105Z,60.50
2023-02-25T14:45:45.903Z,61.70
2023-02-25T14:48:44.842Z,57.20
2023-02-25T14:51:23.675Z,58.80
2023-02-25T14:54:31.983Z,58.20
2023-02-25T14:57:36.621Z,55.30
2023-02-25T15:00:23.491Z,57.40
2023-02-25T15:03:43.127Z,54.20
2023-02-25T15:06:42.597Z,53.50
2023-02-25T15:09:09.188Z,54.30
2023-02-25T15:11:57.055Z,54.70
2023-02-25T15:14:33.272Z,53.70
2023-02-25T15:17:20.951Z,55.30
2023-02-25T15:19:59.581Z,55.50
2023-02-25T15:22:29.288Z,54.80
2023-02-25T15:25:20.974Z,55.50
2023-02-25T15:27:56.500Z,54.40
2023-02-25T15:30:25.433Z,54.30
2023-02-25T15:32:59.572Z,54.40
2023-02-25T15:35:35.794Z,55.40
2023-02-25T15:38:48.072Z,55.50
2023-02-25T15:41:26.787Z,57.20
2023-02-25T15:43:57.417Z,57.10
2023-02-25T15:46:36.454Z,56.80
2023-02-25T15:49:15.336Z,57.40
2023-02-25T15:51:49.709Z,59.00
2023-02-25T15:54:28.466Z,57.70
2023-02-25T15:57:04.753Z,57.80
2023-02-25T15:59:47.076Z,57.00
2023-02-25T16:02:34.654Z,57.00
2023-02-25T16:05:05.609Z,56.90
2023-02-25T16:07:37.633Z,57.40
2023-02-25T16:10:13.967Z,57.80
2023-02-25T16:12:42.870Z,59.20
2023-02-25T16:15:41.711Z,59.90
2023-02-25T16:18:15.058Z,60.00
2023-02-25T16:20:54.549Z,61.90
2023-02-25T16:23:21.317Z,62.10
2023-02-25T16:26:29.049Z,63.20
2023-02-25T16:29:24.572Z,63.80
2023-02-25T16:32:09.213Z,65.40
2023-02-25T16:34:47.237Z,65.50
2023-02-25T16:37:34.540Z,65.10
2023-02-25T16:40:01.859Z,63.90
2023-02-25T16:42:32.888Z,64.70
2023-02-25T16:45:02.045Z,65.60
2023-02-25T16:47:32.087Z,64.50
2023-02-25T16:50:01.506Z,65.10
2023-02-25T16:52:37.193Z,65.70
2023-02-25T16:55:10.841Z,65.90
2023-02-25T16:57:38.782Z,66.00
2023-02-25T17:00:25.725Z,67.30
2023-02-25T17:02:53.705Z,67.70
2023-02-25T17:05:38.699Z,68.20
2023-02-25T17:08:14.543Z,69.00
2023-02-25T17:10:47.333Z,69.40
2023-02-25T17:13:25.041Z,70.10
2023-02-25T17:15:52.951Z,71.20
2023-02-25T17:18:33.579Z,71.50
2023-02-25T17:21:06.479Z,72.40
2023-02-25T17:23:39.739Z,73.50
2023-02-25T17:26:06.692Z,73.90
2023-02-25T17:28:34.156Z,74.20
2023-02-25T17:31:10.596Z,74.20
2023-02-25T17:33:53.433Z,74.20
2023-02-25T17:36:25.145Z,74.00
2023-02-25T17:39:01.765Z,74.70
2023-02-25T17:41:28.808Z,74.80
2023-02-25T17:43:55.830Z,75.30
2023-02-25T17:46:22.635Z,75.50
2023-02-25T17:48:56.946Z,76.10
2023-02-25T17:53:56.542Z,77.00
2023-02-25T17:56:31.594Z,77.10
2023-02-25T17:59:02.950Z,77.70
2023-02-25T18:01:44.100Z,78.00
2023-02-25T18:04:26.380Z,78.40
2023-02-25T18:06:55.523Z,81.40
2023-02-25T18:09:33.255Z,83.50
2023-02-25T18:12:01.281Z,84.60
2023-02-25T18:14:38.215Z,84.50
2023-02-25T18:17:21.766Z,85.50
2023-02-25T18:19:48.575Z,87.30
2023-02-25T18:22:29.352Z,89.00
2023-02-25T18:25:00.486Z,89.10
2023-02-25T18:27:32.839Z,89.10
2023-02-25T18:30:20.437Z,88.90
2023-02-25T18:32:47.558Z,90.00
2023-02-25T18:35:15.150Z,90.30
2023-02-25T18:37:43.022Z,90.10
2023-02-25T18:40:27.586Z,90.20
2023-02-25T18:42:54.380Z,90.50
2023-02-25T18:45:23.066Z,90.70
2023-02-25T18:47:52.716Z,90.70
2023-02-25T18:50:20.503Z,91.10
2023-02-25T18:52:47.481Z,91.20
2023-02-25T18:55:28.398Z,91.40
2023-02-25T18:57:55.173Z,91.80
2023-02-25T19:00:24.722Z,92.10
2023-02-25T19:02:54.830Z,92.20
2023-02-25T19:05:23.723Z,92.90
2023-02-25T19:07:52.872Z,93.00
2023-02-25T19:10:21.335Z,92.90
2023-02-25T19:12:49.638Z,93.30
2023-02-25T19:15:20.772Z,93.60
2023-02-25T19:17:48.686Z,94.30
2023-02-25T19:20:18.782Z,95.90
2023-02-25T19:22:48.754Z,96.90
2023-02-25T19:25:27.710Z,98.10
2023-02-25T19:27:56.313Z,98.70
2023-02-25T19:30:30.987Z,99.40
2023-02-25T19:33:04.531Z,99.90
2023-02-25T19:35:34.139Z,99.90
2023-02-25T19:38:01.597Z,99.90
2023-02-25T19:40:29.152Z,99.90
2023-02-25T19:42:56.415Z,99.90
2023-02-25T19:45:24.850Z,99.90
2023-02-25T19:47:53.391Z,99.90
2023-02-25T19:50:21.681Z,99.90
2023-02-25T19:52:48.556Z,99.90
2023-02-25T19:55:15.380Z,99.90
2023-02-25T19:57:42.605Z,99.90
2023-02-25T20:00:15.911Z,99.90
2023-02-25T20:02:43.109Z,99.90
2023-02-25T20:05:11.845Z,99.90
2023-02-25T20:07:39.076Z,99.90
2023-02-25T20:10:10.800Z,99.90
2023-02-25T20:12:38.326Z,99.90
2023-02-25T20:15:06.740Z,99.90
2023-02-25T20:17:36.269Z,99.90
2023-02-25T20:20:03.653Z,99.90
2023-02-25T20:22:30.337Z,99.90
2023-02-25T20:24:57.013Z,99.90
2023-02-25T20:27:24.129Z,99.90
2023-02-25T20:29:50.818Z,99.90
2023-02-25T20:32:17.767Z,99.90
2023-02-25T20:34:44.699Z,99.90
2023-02-25T20:37:19.631Z,99.90
2023-02-25T20:39:53.734Z,99.90
2023-02-25T20:42:29.999Z,99.90
2023-02-25T20:44:58.524Z,99.90
2023-02-25T20:47:30.904Z,99.90
2023-02-25T20:49:58.455Z,99.90
2023-02-25T20:52:26.775Z,99.90
2023-02-25T20:54:54.362Z,99.90
2023-02-25T20:57:23.912Z,99.90
2023-02-25T20:59:51.062Z,99.90
2023-02-25T21:02:18.101Z,99.90
2023-02-25T21:04:45.340Z,99.90
2023-02-25T21:07:12.758Z,99.90
2023-02-25T21:09:40.274Z,99.90
2023-02-25T21:12:07.654Z,99.90
2023-02-25T21:14:34.379Z,99.90
2023-02-25T21:17:01.067Z,99.90
2023-02-25T21:19:28.286Z,99.90
2023-02-25T21:21:55.432Z,99.90
2023-02-25T21:24:22.527Z,99.90
2023-02-25T21:26:49.288Z,99.90
2023-02-25T21:29:16.089Z,99.90
2023-02-25T21:31:43.506Z,99.90
2023-02-25T21:34:12.734Z,99.90
2023-02-25T21:36:40.468Z,99.90
2023-02-25T21:39:09.384Z,99.90
2023-02-25T21:41:37.985Z,99.90
2023-02-25T21:44:04.899Z,99.90
2023-02-25T21:46:31.705Z,99.90
2023-02-25T21:48:59.416Z,99.90
2023-02-25T21:51:28.250Z,99.90
2023-02-25T21:53:56.518Z,99.90
2023-02-25T21:56:28.365Z,99.90
2023-02-25T21:58:56.830Z,99.90
2023-02-25T22:01:26.277Z,99.90
2023-02-25T22:03:53.275Z,99.90
2023-02-25T22:06:23.797Z,99.90
2023-02-25T22:08:51.985Z,99.90
2023-02-25T22:11:24.355Z,99.90
2023-02-25T22:13:52.612Z,99.90
2023-02-25T22:16:19.820Z,99.90
2023-02-25T22:18:46.634Z,99.90
2023-02-25T22:21:25.730Z,99.90
2023-02-25T22:23:54.752Z,99.90
2023-02-25T22:26:24.220Z,99.90
2023-02-25T22:28:55.812Z,99.90
2023-02-25T22:31:23.602Z,99.90
2023-02-25T22:33:50.746Z,99.90
2023-02-25T22:36:19.064Z,99.90
2023-02-25T22:38:47.179Z,99.90
2023-02-25T22:41:16.802Z,99.90
2023-02-25T22:43:44.625Z,99.90
2023-02-25T22:46:14.159Z,99.90
2023-02-25T22:48:42.584Z,99.90
2023-02-25T22:51:10.642Z,99.90
2023-02-25T22:53:38.426Z,99.90
2023-02-25T22:56:08.594Z,99.90
2023-02-25T22:58:38.629Z,99.90
2023-02-25T23:01:05.492Z,99.90
2023-02-25T23:03:32.308Z,99.90
2023-02-25T23:05:59.018Z,99.90
2023-02-25T23:08:25.946Z,99.90
2023-02-25T23:10:53.244Z,99.90
2023-02-25T23:13:20.149Z,99.90
2023-02-25T23:15:47.770Z,99.90
2023-02-25T23:18:15.637Z,99.90
2023-02-25T23:20:42.532Z,99.90
2023-02-25T23:23:09.521Z,99.90
2023-02-25T23:25:39.005Z,99.90
2023-02-25T23:28:07.732Z,99.90
2023-02-25T23:30:38.190Z,99.90
2023-02-25T23:33:05.856Z,99.90
2023-02-25T23:35:33.467Z,99.90
2023-02-25T23:38:00.654Z,99.90
2023-02-25T23:40:28.799Z,99.90
2023-02-25T23:42:55.716Z,99.90
2023-02-25T23:45:22.622Z,99.90
2023-02-25T23:47:49.362Z,99.90
2023-02-25T23:50:16.787Z,99.90
2023-02-25T23:52:44.902Z,99.90
2023-02-25T23:55:13.244Z,99.90
2023-02-25T23:57:40.271Z,99.90
